sensor_id;sensor_type;location;lat;lon;timestamp;pressure;altitude;pressure_sealevel;temperature
82636;BMP280;72317;37.280;-121.948;2023-10-08T00:00:26;100361.34;;;31.68
82636;BMP280;72317;37.280;-121.948;2023-10-08T00:03:11;100357.53;;;31.58
82636;BMP280;72317;37.280;-121.948;2023-10-08T00:05:40;100358.03;;;31.70
82636;BMP280;72317;37.280;-121.948;2023-10-08T00:08:07;100361.72;;;31.72
82636;BMP280;72317;37.280;-121.948;2023-10-08T00:10:39;100361.88;;;31.54
82636;BMP280;72317;37.280;-121.948;2023-10-08T00:13:13;100358.84;;;31.58
82636;BMP280;72317;37.280;-121.948;2023-10-08T00:15:42;100359.69;;;31.40
82636;BMP280;72317;37.280;-121.948;2023-10-08T00:18:22;100358.03;;;31.37
82636;BMP280;72317;37.280;-121.948;2023-10-08T00:20:50;100363.16;;;31.40
82636;BMP280;72317;37.280;-121.948;2023-10-08T00:23:23;100358.44;;;31.41
82636;BMP280;72317;37.280;-121.948;2023-10-08T00:26:12;100358.44;;;31.28
82636;BMP280;72317;37.280;-121.948;2023-10-08T00:28:42;100355.94;;;31.30
82636;BMP280;72317;37.280;-121.948;2023-10-08T00:31:08;100360.91;;;31.18
82636;BMP280;72317;37.280;-121.948;2023-10-08T00:33:38;100358.47;;;31.15
82636;BMP280;72317;37.280;-121.948;2023-10-08T00:36:05;100355.66;;;31.07
82636;BMP280;72317;37.280;-121.948;2023-10-08T00:38:46;100364.69;;;31.15
82636;BMP280;72317;37.280;-121.948;2023-10-08T00:41:17;100358.88;;;31.06
82636;BMP280;72317;37.280;-121.948;2023-10-08T00:43:48;100366.16;;;31.03
82636;BMP280;72317;37.280;-121.948;2023-10-08T00:46:16;100356.16;;;31.06
82636;BMP280;72317;37.280;-121.948;2023-10-08T00:48:49;100367.03;;;30.99
82636;BMP280;72317;37.280;-121.948;2023-10-08T00:51:19;100357.97;;;30.91
82636;BMP280;72317;37.280;-121.948;2023-10-08T00:54:02;100375.75;;;30.84
82636;BMP280;72317;37.280;-121.948;2023-10-08T00:56:34;100362.69;;;30.77
82636;BMP280;72317;37.280;-121.948;2023-10-08T00:59:22;100363.50;;;30.72
82636;BMP280;72317;37.280;-121.948;2023-10-08T01:01:50;100364.47;;;30.75
82636;BMP280;72317;37.280;-121.948;2023-10-08T01:04:31;100372.03;;;30.69
82636;BMP280;72317;37.280;-121.948;2023-10-08T01:07:02;100365.50;;;30.59
82636;BMP280;72317;37.280;-121.948;2023-10-08T01:09:38;100370.53;;;30.55
82636;BMP280;72317;37.280;-121.948;2023-10-08T01:12:15;100359.88;;;30.51
82636;BMP280;72317;37.280;-121.948;2023-10-08T01:14:45;100371.91;;;30.49
82636;BMP280;72317;37.280;-121.948;2023-10-08T01:17:14;100373.34;;;30.37
82636;BMP280;72317;37.280;-121.948;2023-10-08T01:19:45;100366.25;;;30.28
82636;BMP280;72317;37.280;-121.948;2023-10-08T01:22:22;100369.75;;;30.29
82636;BMP280;72317;37.280;-121.948;2023-10-08T01:24:51;100372.03;;;30.25
82636;BMP280;72317;37.280;-121.948;2023-10-08T01:27:19;100370.88;;;30.20
82636;BMP280;72317;37.280;-121.948;2023-10-08T01:29:52;100373.91;;;30.17
82636;BMP280;72317;37.280;-121.948;2023-10-08T01:32:20;100376.06;;;30.05
82636;BMP280;72317;37.280;-121.948;2023-10-08T01:34:47;100374.59;;;30.04
82636;BMP280;72317;37.280;-121.948;2023-10-08T01:37:18;100379.13;;;30.02
82636;BMP280;72317;37.280;-121.948;2023-10-08T01:39:47;100378.66;;;29.98
82636;BMP280;72317;37.280;-121.948;2023-10-08T01:42:18;100379.69;;;29.95
82636;BMP280;72317;37.280;-121.948;2023-10-08T01:44:49;100385.31;;;29.84
82636;BMP280;72317;37.280;-121.948;2023-10-08T01:47:20;100377.41;;;29.81
82636;BMP280;72317;37.280;-121.948;2023-10-08T01:49:51;100382.38;;;29.82
82636;BMP280;72317;37.280;-121.948;2023-10-08T01:52:23;100389.63;;;29.80
82636;BMP280;72317;37.280;-121.948;2023-10-08T01:54:50;100385.47;;;29.73
82636;BMP280;72317;37.280;-121.948;2023-10-08T01:57:19;100385.16;;;29.58
82636;BMP280;72317;37.280;-121.948;2023-10-08T01:59:46;100386.44;;;29.57
82636;BMP280;72317;37.280;-121.948;2023-10-08T02:02:12;100389.31;;;29.46
82636;BMP280;72317;37.280;-121.948;2023-10-08T02:04:41;100392.47;;;29.50
82636;BMP280;72317;37.280;-121.948;2023-10-08T02:07:07;100392.97;;;29.49
82636;BMP280;72317;37.280;-121.948;2023-10-08T02:09:34;100398.59;;;29.38
82636;BMP280;72317;37.280;-121.948;2023-10-08T02:12:00;100393.13;;;29.38
82636;BMP280;72317;37.280;-121.948;2023-10-08T02:14:27;100389.25;;;29.28
82636;BMP280;72317;37.280;-121.948;2023-10-08T02:16:58;100398.47;;;29.25
82636;BMP280;72317;37.280;-121.948;2023-10-08T02:19:29;100404.97;;;29.22
82636;BMP280;72317;37.280;-121.948;2023-10-08T02:21:57;100407.06;;;29.11
82636;BMP280;72317;37.280;-121.948;2023-10-08T02:24:24;100406.09;;;29.08
82636;BMP280;72317;37.280;-121.948;2023-10-08T02:26:52;100414.97;;;29.14
82636;BMP280;72317;37.280;-121.948;2023-10-08T02:29:19;100411.06;;;29.10
82636;BMP280;72317;37.280;-121.948;2023-10-08T02:31:45;100406.38;;;29.05
82636;BMP280;72317;37.280;-121.948;2023-10-08T02:34:11;100411.94;;;28.94
82636;BMP280;72317;37.280;-121.948;2023-10-08T02:36:39;100410.91;;;28.97
82636;BMP280;72317;37.280;-121.948;2023-10-08T02:39:08;100408.22;;;28.91
82636;BMP280;72317;37.280;-121.948;2023-10-08T02:41:49;100414.66;;;28.94
82636;BMP280;72317;37.280;-121.948;2023-10-08T02:44:16;100416.38;;;28.97
82636;BMP280;72317;37.280;-121.948;2023-10-08T02:46:44;100418.66;;;28.93
82636;BMP280;72317;37.280;-121.948;2023-10-08T02:49:17;100410.06;;;28.83
82636;BMP280;72317;37.280;-121.948;2023-10-08T02:51:47;100413.84;;;28.75
82636;BMP280;72317;37.280;-121.948;2023-10-08T02:54:19;100415.09;;;28.74
82636;BMP280;72317;37.280;-121.948;2023-10-08T02:56:57;100416.38;;;28.68
82636;BMP280;72317;37.280;-121.948;2023-10-08T02:59:33;100427.88;;;28.61
82636;BMP280;72317;37.280;-121.948;2023-10-08T03:02:14;100427.94;;;28.50
82636;BMP280;72317;37.280;-121.948;2023-10-08T03:04:45;100427.41;;;28.51
82636;BMP280;72317;37.280;-121.948;2023-10-08T03:07:15;100424.09;;;28.34
82636;BMP280;72317;37.280;-121.948;2023-10-08T03:09:53;100423.59;;;28.30
82636;BMP280;72317;37.280;-121.948;2023-10-08T03:12:35;100432.28;;;28.29
82636;BMP280;72317;37.280;-121.948;2023-10-08T03:15:04;100428.31;;;28.24
82636;BMP280;72317;37.280;-121.948;2023-10-08T03:17:53;100432.16;;;28.05
82636;BMP280;72317;37.280;-121.948;2023-10-08T03:20:23;100436.41;;;28.01
82636;BMP280;72317;37.280;-121.948;2023-10-08T03:23:10;100445.31;;;28.01
82636;BMP280;72317;37.280;-121.948;2023-10-08T03:25:53;100444.09;;;27.97
82636;BMP280;72317;37.280;-121.948;2023-10-08T03:28:42;100442.38;;;27.88
82636;BMP280;72317;37.280;-121.948;2023-10-08T03:31:08;100453.06;;;27.86
82636;BMP280;72317;37.280;-121.948;2023-10-08T03:33:43;100444.69;;;27.79
82636;BMP280;72317;37.280;-121.948;2023-10-08T03:36:15;100445.19;;;27.72
82636;BMP280;72317;37.280;-121.948;2023-10-08T03:38:47;100446.94;;;27.69
82636;BMP280;72317;37.280;-121.948;2023-10-08T03:41:26;100448.22;;;27.58
82636;BMP280;72317;37.280;-121.948;2023-10-08T03:43:58;100442.50;;;27.61
82636;BMP280;72317;37.280;-121.948;2023-10-08T03:46:29;100445.97;;;27.56
82636;BMP280;72317;37.280;-121.948;2023-10-08T03:48:55;100446.97;;;27.53
82636;BMP280;72317;37.280;-121.948;2023-10-08T03:51:26;100456.38;;;27.47
82636;BMP280;72317;37.280;-121.948;2023-10-08T03:53:53;100458.63;;;27.37
82636;BMP280;72317;37.280;-121.948;2023-10-08T03:56:35;100465.56;;;27.33
82636;BMP280;72317;37.280;-121.948;2023-10-08T03:59:03;100466.59;;;27.24
82636;BMP280;72317;37.280;-121.948;2023-10-08T04:01:39;100467.06;;;27.17
82636;BMP280;72317;37.280;-121.948;2023-10-08T04:04:09;100459.38;;;27.16
82636;BMP280;72317;37.280;-121.948;2023-10-08T04:06:41;100460.38;;;27.18
82636;BMP280;72317;37.280;-121.948;2023-10-08T04:09:15;100465.06;;;27.18
82636;BMP280;72317;37.280;-121.948;2023-10-08T04:11:44;100465.81;;;27.07
82636;BMP280;72317;37.280;-121.948;2023-10-08T04:14:13;100469.53;;;26.99
82636;BMP280;72317;37.280;-121.948;2023-10-08T04:16:42;100473.72;;;26.84
82636;BMP280;72317;37.280;-121.948;2023-10-08T04:19:09;100475.72;;;26.89
82636;BMP280;72317;37.280;-121.948;2023-10-08T04:21:35;100474.72;;;26.92
82636;BMP280;72317;37.280;-121.948;2023-10-08T04:24:02;100474.47;;;26.90
82636;BMP280;72317;37.280;-121.948;2023-10-08T04:26:32;100473.94;;;26.86
82636;BMP280;72317;37.280;-121.948;2023-10-08T04:28:59;100477.44;;;26.81
82636;BMP280;72317;37.280;-121.948;2023-10-08T04:31:33;100478.16;;;26.76
82636;BMP280;72317;37.280;-121.948;2023-10-08T04:34:06;100482.63;;;26.73
82636;BMP280;72317;37.280;-121.948;2023-10-08T04:36:45;100485.31;;;26.68
82636;BMP280;72317;37.280;-121.948;2023-10-08T04:39:14;100486.81;;;26.63
82636;BMP280;72317;37.280;-121.948;2023-10-08T04:41:47;100480.81;;;26.48
82636;BMP280;72317;37.280;-121.948;2023-10-08T04:44:19;100483.50;;;26.38
82636;BMP280;72317;37.280;-121.948;2023-10-08T04:46:47;100487.69;;;26.33
82636;BMP280;72317;37.280;-121.948;2023-10-08T04:49:17;100489.91;;;26.35
82636;BMP280;72317;37.280;-121.948;2023-10-08T04:51:46;100485.72;;;26.39
82636;BMP280;72317;37.280;-121.948;2023-10-08T04:54:14;100486.97;;;26.38
82636;BMP280;72317;37.280;-121.948;2023-10-08T04:56:44;100496.13;;;26.35
82636;BMP280;72317;37.280;-121.948;2023-10-08T04:59:10;100489.63;;;26.27
82636;BMP280;72317;37.280;-121.948;2023-10-08T05:01:38;100492.34;;;26.27
82636;BMP280;72317;37.280;-121.948;2023-10-08T05:04:06;100493.41;;;26.35
82636;BMP280;72317;37.280;-121.948;2023-10-08T05:06:48;100492.13;;;26.25
82636;BMP280;72317;37.280;-121.948;2023-10-08T05:09:27;100501.69;;;26.10
82636;BMP280;72317;37.280;-121.948;2023-10-08T05:12:14;100513.31;;;26.16
82636;BMP280;72317;37.280;-121.948;2023-10-08T05:15:00;100503.66;;;26.09
82636;BMP280;72317;37.280;-121.948;2023-10-08T05:17:43;100508.06;;;26.07
82636;BMP280;72317;37.280;-121.948;2023-10-08T05:20:20;100510.50;;;25.99
82636;BMP280;72317;37.280;-121.948;2023-10-08T05:23:12;100517.16;;;25.98
82636;BMP280;72317;37.280;-121.948;2023-10-08T05:25:48;100514.31;;;25.77
82636;BMP280;72317;37.280;-121.948;2023-10-08T05:28:36;100512.06;;;25.75
82636;BMP280;72317;37.280;-121.948;2023-10-08T05:31:22;100509.03;;;25.62
82636;BMP280;72317;37.280;-121.948;2023-10-08T05:34:08;100504.38;;;25.68
82636;BMP280;72317;37.280;-121.948;2023-10-08T05:36:45;100513.03;;;25.72
82636;BMP280;72317;37.280;-121.948;2023-10-08T05:39:30;100498.88;;;25.63
82636;BMP280;72317;37.280;-121.948;2023-10-08T05:42:09;100502.81;;;25.56
82636;BMP280;72317;37.280;-121.948;2023-10-08T05:44:45;100508.66;;;25.49
82636;BMP280;72317;37.280;-121.948;2023-10-08T05:47:29;100519.03;;;25.45
82636;BMP280;72317;37.280;-121.948;2023-10-08T05:49:59;100517.03;;;25.46
82636;BMP280;72317;37.280;-121.948;2023-10-08T05:52:44;100518.81;;;25.49
82636;BMP280;72317;37.280;-121.948;2023-10-08T05:55:31;100513.59;;;25.45
82636;BMP280;72317;37.280;-121.948;2023-10-08T05:58:06;100520.28;;;25.24
82636;BMP280;72317;37.280;-121.948;2023-10-08T06:00:47;100519.56;;;25.24
82636;BMP280;72317;37.280;-121.948;2023-10-08T06:03:17;100513.69;;;25.25
82636;BMP280;72317;37.280;-121.948;2023-10-08T06:06:04;100520.53;;;25.21
82636;BMP280;72317;37.280;-121.948;2023-10-08T06:08:49;100526.06;;;25.07
82636;BMP280;72317;37.280;-121.948;2023-10-08T06:11:34;100533.50;;;25.12
82636;BMP280;72317;37.280;-121.948;2023-10-08T06:14:10;100532.63;;;25.00
82636;BMP280;72317;37.280;-121.948;2023-10-08T06:16:45;100521.78;;;25.00
82636;BMP280;72317;37.280;-121.948;2023-10-08T06:19:15;100529.63;;;24.93
82636;BMP280;72317;37.280;-121.948;2023-10-08T06:21:42;100528.16;;;24.97
82636;BMP280;72317;37.280;-121.948;2023-10-08T06:24:09;100533.34;;;24.95
82636;BMP280;72317;37.280;-121.948;2023-10-08T06:26:39;100528.84;;;24.92
82636;BMP280;72317;37.280;-121.948;2023-10-08T06:29:12;100527.09;;;24.89
82636;BMP280;72317;37.280;-121.948;2023-10-08T06:31:54;100533.91;;;24.79
82636;BMP280;72317;37.280;-121.948;2023-10-08T06:34:22;100529.84;;;24.69
82636;BMP280;72317;37.280;-121.948;2023-10-08T06:36:55;100523.31;;;24.61
82636;BMP280;72317;37.280;-121.948;2023-10-08T06:39:22;100529.44;;;24.56
82636;BMP280;72317;37.280;-121.948;2023-10-08T06:41:59;100524.94;;;24.53
82636;BMP280;72317;37.280;-121.948;2023-10-08T06:44:26;100525.13;;;24.50
82636;BMP280;72317;37.280;-121.948;2023-10-08T06:46:53;100525.25;;;24.55
82636;BMP280;72317;37.280;-121.948;2023-10-08T06:49:21;100525.78;;;24.59
82636;BMP280;72317;37.280;-121.948;2023-10-08T06:51:51;100536.75;;;24.50
82636;BMP280;72317;37.280;-121.948;2023-10-08T06:54:19;100531.47;;;24.42
82636;BMP280;72317;37.280;-121.948;2023-10-08T06:56:45;100529.28;;;24.26
82636;BMP280;72317;37.280;-121.948;2023-10-08T06:59:18;100534.00;;;24.11
82636;BMP280;72317;37.280;-121.948;2023-10-08T07:01:48;100519.16;;;24.26
82636;BMP280;72317;37.280;-121.948;2023-10-08T07:04:17;100532.41;;;24.19
82636;BMP280;72317;37.280;-121.948;2023-10-08T07:06:45;100526.38;;;24.29
82636;BMP280;72317;37.280;-121.948;2023-10-08T07:09:17;100532.84;;;24.17
82636;BMP280;72317;37.280;-121.948;2023-10-08T07:11:52;100531.09;;;24.00
82636;BMP280;72317;37.280;-121.948;2023-10-08T07:14:24;100534.03;;;23.96
82636;BMP280;72317;37.280;-121.948;2023-10-08T07:16:54;100535.00;;;23.99
82636;BMP280;72317;37.280;-121.948;2023-10-08T07:19:21;100542.59;;;23.95
82636;BMP280;72317;37.280;-121.948;2023-10-08T07:21:49;100540.56;;;23.90
82636;BMP280;72317;37.280;-121.948;2023-10-08T07:24:20;100536.91;;;23.93
82636;BMP280;72317;37.280;-121.948;2023-10-08T07:26:48;100536.00;;;23.81
82636;BMP280;72317;37.280;-121.948;2023-10-08T07:29:16;100544.13;;;23.67
82636;BMP280;72317;37.280;-121.948;2023-10-08T07:31:44;100545.25;;;23.75
82636;BMP280;72317;37.280;-121.948;2023-10-08T07:34:19;100548.63;;;23.70
82636;BMP280;72317;37.280;-121.948;2023-10-08T07:36:53;100542.84;;;23.63
82636;BMP280;72317;37.280;-121.948;2023-10-08T07:39:21;100542.72;;;23.72
82636;BMP280;72317;37.280;-121.948;2023-10-08T07:41:54;100548.06;;;23.66
82636;BMP280;72317;37.280;-121.948;2023-10-08T07:44:21;100551.72;;;23.63
82636;BMP280;72317;37.280;-121.948;2023-10-08T07:46:52;100556.25;;;23.72
82636;BMP280;72317;37.280;-121.948;2023-10-08T07:49:22;100555.06;;;23.73
82636;BMP280;72317;37.280;-121.948;2023-10-08T07:51:49;100560.66;;;23.69
82636;BMP280;72317;37.280;-121.948;2023-10-08T07:54:22;100546.94;;;23.58
82636;BMP280;72317;37.280;-121.948;2023-10-08T07:56:52;100554.28;;;23.58
82636;BMP280;72317;37.280;-121.948;2023-10-08T07:59:22;100558.53;;;23.59
82636;BMP280;72317;37.280;-121.948;2023-10-08T08:01:50;100563.34;;;23.55
82636;BMP280;72317;37.280;-121.948;2023-10-08T08:04:19;100555.06;;;23.58
82636;BMP280;72317;37.280;-121.948;2023-10-08T08:06:49;100555.69;;;23.53
82636;BMP280;72317;37.280;-121.948;2023-10-08T08:09:19;100566.44;;;23.48
82636;BMP280;72317;37.280;-121.948;2023-10-08T08:11:46;100563.81;;;23.39
82636;BMP280;72317;37.280;-121.948;2023-10-08T08:14:16;100559.41;;;23.27
82636;BMP280;72317;37.280;-121.948;2023-10-08T08:16:46;100563.31;;;23.26
82636;BMP280;72317;37.280;-121.948;2023-10-08T08:19:15;100562.00;;;23.21
82636;BMP280;72317;37.280;-121.948;2023-10-08T08:21:45;100564.81;;;23.27
82636;BMP280;72317;37.280;-121.948;2023-10-08T08:24:12;100571.91;;;23.24
82636;BMP280;72317;37.280;-121.948;2023-10-08T08:26:39;100569.16;;;23.10
82636;BMP280;72317;37.280;-121.948;2023-10-08T08:29:06;100577.69;;;23.17
82636;BMP280;72317;37.280;-121.948;2023-10-08T08:31:35;100581.53;;;23.02
82636;BMP280;72317;37.280;-121.948;2023-10-08T08:34:02;100567.72;;;23.00
82636;BMP280;72317;37.280;-121.948;2023-10-08T08:36:34;100571.91;;;23.01
82636;BMP280;72317;37.280;-121.948;2023-10-08T08:39:05;100575.44;;;22.93
82636;BMP280;72317;37.280;-121.948;2023-10-08T08:41:37;100577.97;;;22.96
82636;BMP280;72317;37.280;-121.948;2023-10-08T08:44:04;100572.47;;;22.91
82636;BMP280;72317;37.280;-121.948;2023-10-08T08:46:34;100581.34;;;22.82
82636;BMP280;72317;37.280;-121.948;2023-10-08T08:49:05;100573.75;;;22.81
82636;BMP280;72317;37.280;-121.948;2023-10-08T08:51:35;100575.50;;;22.60
82636;BMP280;72317;37.280;-121.948;2023-10-08T08:54:02;100560.53;;;22.50
82636;BMP280;72317;37.280;-121.948;2023-10-08T08:56:36;100574.78;;;22.51
82636;BMP280;72317;37.280;-121.948;2023-10-08T08:59:07;100574.78;;;22.51
82636;BMP280;72317;37.280;-121.948;2023-10-08T09:01:40;100570.47;;;22.44
82636;BMP280;72317;37.280;-121.948;2023-10-08T09:04:07;100575.00;;;22.39
82636;BMP280;72317;37.280;-121.948;2023-10-08T09:06:37;100570.47;;;22.44
82636;BMP280;72317;37.280;-121.948;2023-10-08T09:09:04;100570.06;;;22.37
82636;BMP280;72317;37.280;-121.948;2023-10-08T09:12:00;100572.94;;;22.34
82636;BMP280;72317;37.280;-121.948;2023-10-08T09:14:28;100578.72;;;22.41
82636;BMP280;72317;37.280;-121.948;2023-10-08T09:16:58;100575.88;;;22.44
82636;BMP280;72317;37.280;-121.948;2023-10-08T09:19:25;100577.25;;;22.40
82636;BMP280;72317;37.280;-121.948;2023-10-08T09:22:05;100567.91;;;22.41
82636;BMP280;72317;37.280;-121.948;2023-10-08T09:24:36;100568.47;;;22.54
82636;BMP280;72317;37.280;-121.948;2023-10-08T09:27:07;100562.84;;;22.43
82636;BMP280;72317;37.280;-121.948;2023-10-08T09:29:36;100565.91;;;22.27
82636;BMP280;72317;37.280;-121.948;2023-10-08T09:32:08;100567.66;;;22.30
82636;BMP280;72317;37.280;-121.948;2023-10-08T09:34:34;100559.31;;;22.19
82636;BMP280;72317;37.280;-121.948;2023-10-08T09:37:01;100558.44;;;22.13
82636;BMP280;72317;37.280;-121.948;2023-10-08T09:39:28;100557.16;;;22.00
82636;BMP280;72317;37.280;-121.948;2023-10-08T09:41:56;100558.59;;;22.19
82636;BMP280;72317;37.280;-121.948;2023-10-08T09:44:24;100554.50;;;22.23
82636;BMP280;72317;37.280;-121.948;2023-10-08T09:49:38;100542.59;;;21.97
82636;BMP280;72317;37.280;-121.948;2023-10-08T09:52:07;100543.19;;;22.01
82636;BMP280;72317;37.280;-121.948;2023-10-08T09:55:08;100536.59;;;22.02
82636;BMP280;72317;37.280;-121.948;2023-10-08T09:57:38;100536.03;;;21.89
82636;BMP280;72317;37.280;-121.948;2023-10-08T10:00:07;100545.09;;;21.51
82636;BMP280;72317;37.280;-121.948;2023-10-08T10:02:44;100542.31;;;21.77
82636;BMP280;72317;37.280;-121.948;2023-10-08T10:05:19;100540.25;;;21.81
82636;BMP280;72317;37.280;-121.948;2023-10-08T10:07:50;100538.59;;;21.84
82636;BMP280;72317;37.280;-121.948;2023-10-08T10:10:34;100536.50;;;21.79
82636;BMP280;72317;37.280;-121.948;2023-10-08T10:13:05;100536.19;;;21.86
82636;BMP280;72317;37.280;-121.948;2023-10-08T10:15:34;100536.50;;;21.79
82636;BMP280;72317;37.280;-121.948;2023-10-08T10:18:14;100532.75;;;21.76
82636;BMP280;72317;37.280;-121.948;2023-10-08T10:20:45;100533.38;;;21.63
82636;BMP280;72317;37.280;-121.948;2023-10-08T10:23:37;100531.16;;;21.61
82636;BMP280;72317;37.280;-121.948;2023-10-08T10:26:04;100530.53;;;21.75
82636;BMP280;72317;37.280;-121.948;2023-10-08T10:28:30;100527.38;;;21.59
82636;BMP280;72317;37.280;-121.948;2023-10-08T10:30:56;100526.38;;;21.56
82636;BMP280;72317;37.280;-121.948;2023-10-08T10:33:30;100533.09;;;21.61
82636;BMP280;72317;37.280;-121.948;2023-10-08T10:35:57;100530.25;;;21.55
82636;BMP280;72317;37.280;-121.948;2023-10-08T10:38:26;100537.00;;;21.51
82636;BMP280;72317;37.280;-121.948;2023-10-08T10:40:52;100544.19;;;21.45
82636;BMP280;72317;37.280;-121.948;2023-10-08T10:43:34;100538.38;;;21.46
82636;BMP280;72317;37.280;-121.948;2023-10-08T10:46:02;100538.19;;;21.41
82636;BMP280;72317;37.280;-121.948;2023-10-08T10:48:48;100532.78;;;21.32
82636;BMP280;72317;37.280;-121.948;2023-10-08T10:51:44;100532.38;;;21.42
82636;BMP280;72317;37.280;-121.948;2023-10-08T10:54:12;100521.59;;;21.06
82636;BMP280;72317;37.280;-121.948;2023-10-08T10:56:46;100529.53;;;21.10
82636;BMP280;72317;37.280;-121.948;2023-10-08T10:59:14;100534.31;;;21.24
82636;BMP280;72317;37.280;-121.948;2023-10-08T11:01:52;100535.69;;;21.10
82636;BMP280;72317;37.280;-121.948;2023-10-08T11:04:31;100533.84;;;21.16
82636;BMP280;72317;37.280;-121.948;2023-10-08T11:06:59;100525.19;;;21.03
82636;BMP280;72317;37.280;-121.948;2023-10-08T11:09:27;100524.56;;;21.08
82636;BMP280;72317;37.280;-121.948;2023-10-08T11:12:04;100528.94;;;21.06
82636;BMP280;72317;37.280;-121.948;2023-10-08T11:14:42;100533.41;;;20.91
82636;BMP280;72317;37.280;-121.948;2023-10-08T11:17:17;100528.28;;;20.84
82636;BMP280;72317;37.280;-121.948;2023-10-08T11:19:44;100528.78;;;21.00
82636;BMP280;72317;37.280;-121.948;2023-10-08T11:22:17;100520.69;;;20.92
82636;BMP280;72317;37.280;-121.948;2023-10-08T11:24:45;100526.63;;;20.78
82636;BMP280;72317;37.280;-121.948;2023-10-08T11:27:19;100529.47;;;20.92
82636;BMP280;72317;37.280;-121.948;2023-10-08T11:29:56;100533.84;;;20.98
82636;BMP280;72317;37.280;-121.948;2023-10-08T11:32:26;100535.47;;;20.78
82636;BMP280;72317;37.280;-121.948;2023-10-08T11:34:56;100542.38;;;20.79
82636;BMP280;72317;37.280;-121.948;2023-10-08T11:37:29;100545.81;;;20.89
82636;BMP280;72317;37.280;-121.948;2023-10-08T11:40:00;100546.13;;;20.82
82636;BMP280;72317;37.280;-121.948;2023-10-08T11:42:34;100545.59;;;20.65
82636;BMP280;72317;37.280;-121.948;2023-10-08T11:45:01;100548.50;;;20.80
82636;BMP280;72317;37.280;-121.948;2023-10-08T11:47:45;100539.81;;;20.76
82636;BMP280;72317;37.280;-121.948;2023-10-08T11:50:16;100540.53;;;20.58
82636;BMP280;72317;37.280;-121.948;2023-10-08T11:52:46;100543.38;;;20.64
82636;BMP280;72317;37.280;-121.948;2023-10-08T11:55:12;100542.03;;;20.68
82636;BMP280;72317;37.280;-121.948;2023-10-08T11:57:48;100537.47;;;20.56
82636;BMP280;72317;37.280;-121.948;2023-10-08T12:00:16;100539.56;;;20.52
82636;BMP280;72317;37.280;-121.948;2023-10-08T12:03:05;100549.47;;;20.64
82636;BMP280;72317;37.280;-121.948;2023-10-08T12:05:31;100546.75;;;20.46
82636;BMP280;72317;37.280;-121.948;2023-10-08T12:08:00;100548.34;;;20.44
82636;BMP280;72317;37.280;-121.948;2023-10-08T12:10:26;100543.34;;;20.55
82636;BMP280;72317;37.280;-121.948;2023-10-08T12:12:53;100543.91;;;20.50
82636;BMP280;72317;37.280;-121.948;2023-10-08T12:15:26;100547.75;;;20.40
82636;BMP280;72317;37.280;-121.948;2023-10-08T12:18:05;100544.50;;;20.45
82636;BMP280;72317;37.280;-121.948;2023-10-08T12:20:40;100552.41;;;20.48
82636;BMP280;72317;37.280;-121.948;2023-10-08T12:23:10;100552.00;;;20.50
82636;BMP280;72317;37.280;-121.948;2023-10-08T12:25:39;100543.88;;;20.41
82636;BMP280;72317;37.280;-121.948;2023-10-08T12:28:08;100545.13;;;20.19
82636;BMP280;72317;37.280;-121.948;2023-10-08T12:30:37;100542.34;;;20.31
82636;BMP280;72317;37.280;-121.948;2023-10-08T12:33:07;100543.09;;;20.31
82636;BMP280;72317;37.280;-121.948;2023-10-08T12:35:41;100546.38;;;20.35
82636;BMP280;72317;37.280;-121.948;2023-10-08T12:38:08;100550.84;;;20.29
82636;BMP280;72317;37.280;-121.948;2023-10-08T12:40:36;100545.78;;;20.31
82636;BMP280;72317;37.280;-121.948;2023-10-08T12:43:14;100558.81;;;20.12
82636;BMP280;72317;37.280;-121.948;2023-10-08T12:45:49;100553.16;;;19.88
82636;BMP280;72317;37.280;-121.948;2023-10-08T12:48:22;100559.31;;;19.89
82636;BMP280;72317;37.280;-121.948;2023-10-08T12:50:50;100563.91;;;19.79
82636;BMP280;72317;37.280;-121.948;2023-10-08T12:53:22;100568.75;;;19.72
82636;BMP280;72317;37.280;-121.948;2023-10-08T12:56:09;100571.47;;;19.93
82636;BMP280;72317;37.280;-121.948;2023-10-08T12:58:42;100564.84;;;19.94
82636;BMP280;72317;37.280;-121.948;2023-10-08T13:01:17;100569.19;;;19.92
82636;BMP280;72317;37.280;-121.948;2023-10-08T13:03:44;100576.00;;;19.84
82636;BMP280;72317;37.280;-121.948;2023-10-08T13:06:18;100576.38;;;19.73
82636;BMP280;72317;37.280;-121.948;2023-10-08T13:08:51;100571.63;;;19.77
82636;BMP280;72317;37.280;-121.948;2023-10-08T13:11:22;100577.06;;;19.65
82636;BMP280;72317;37.280;-121.948;2023-10-08T13:13:53;100574.06;;;19.63
82636;BMP280;72317;37.280;-121.948;2023-10-08T13:16:23;100574.34;;;19.77
82636;BMP280;72317;37.280;-121.948;2023-10-08T13:18:51;100580.78;;;19.80
82636;BMP280;72317;37.280;-121.948;2023-10-08T13:21:18;100577.53;;;19.85
82636;BMP280;72317;37.280;-121.948;2023-10-08T13:23:54;100584.31;;;19.55
82636;BMP280;72317;37.280;-121.948;2023-10-08T13:26:23;100589.78;;;19.64
82636;BMP280;72317;37.280;-121.948;2023-10-08T13:28:50;100578.56;;;19.66
82636;BMP280;72317;37.280;-121.948;2023-10-08T13:31:17;100586.09;;;19.71
82636;BMP280;72317;37.280;-121.948;2023-10-08T13:33:45;100594.41;;;19.64
82636;BMP280;72317;37.280;-121.948;2023-10-08T13:36:15;100591.31;;;19.53
82636;BMP280;72317;37.280;-121.948;2023-10-08T13:38:42;100591.31;;;19.53
82636;BMP280;72317;37.280;-121.948;2023-10-08T13:41:17;100580.25;;;19.51
82636;BMP280;72317;37.280;-121.948;2023-10-08T13:43:48;100597.72;;;19.34
82636;BMP280;72317;37.280;-121.948;2023-10-08T13:46:18;100603.31;;;19.27
82636;BMP280;72317;37.280;-121.948;2023-10-08T13:48:47;100591.16;;;19.23
82636;BMP280;72317;37.280;-121.948;2023-10-08T13:51:17;100600.88;;;19.20